Time;durP1;ratioP1;P1;durP2;ratioP2;P2;SDS_P1;SDS_P2;PMS_P1;PMS_P2;Temp;Humidity;BMP_temperature;BMP_pressure;BME280_temperature;BME280_humidity;BME280_pressure;Samples;Min_cycle;Max_cycle;Signal;HPM_P1;HPM_P2
2024/01/31 00:00:42;;;;;;;59.60;31.95;;;;;;;;;;5035610;28;20024;-47
2024/01/31 00:03:08;;;;;;;53.47;29.57;;;;;;;;;;5050700;28;20609;-48
2024/01/31 00:05:34;;;;;;;53.55;31.65;;;;;;;;;;5042449;28;20484;-47
2024/01/31 00:08:00;;;;;;;79.38;31.75;;;;;;;;;;5030897;28;20068;-46
2024/01/31 00:10:26;;;;;;;131.90;39.47;;;;;;;;;;5047973;28;20040;-48
2024/01/31 00:12:53;;;;;;;166.40;40.73;;;;;;;;;;5050963;28;20025;-48
2024/01/31 00:15:19;;;;;;;154.15;38.40;;;;;;;;;;5015338;28;20255;-47
2024/01/31 00:17:46;;;;;;;126.18;35.65;;;;;;;;;;5042618;28;20164;-47
2024/01/31 00:20:12;;;;;;;156.40;37.90;;;;;;;;;;5031334;28;20029;-47
2024/01/31 00:22:38;;;;;;;125.53;35.53;;;;;;;;;;5031347;28;20029;-51
2024/01/31 00:25:06;;;;;;;145.90;39.90;;;;;;;;;;5042289;28;20079;-48
2024/01/31 00:27:32;;;;;;;127.32;36.97;;;;;;;;;;5031685;28;20049;-47
2024/01/31 00:29:58;;;;;;;153.35;41.17;;;;;;;;;;5045650;28;20017;-47
2024/01/31 00:32:24;;;;;;;139.57;40.97;;;;;;;;;;5031526;28;20528;-46
2024/01/31 00:34:50;;;;;;;187.27;44.60;;;;;;;;;;5013856;28;20499;-47
2024/01/31 00:37:17;;;;;;;131.63;30.83;;;;;;;;;;5030666;28;20036;-47
2024/01/31 00:39:47;;;;;;;184.82;40.70;;;;;;;;;;5043959;28;20267;-49
2024/01/31 00:42:13;;;;;;;122.53;37.35;;;;;;;;;;5053068;28;20029;-50
2024/01/31 00:44:39;;;;;;;145.50;41.08;;;;;;;;;;5055139;28;20088;-47
2024/01/31 00:47:05;;;;;;;114.00;38.20;;;;;;;;;;5021876;28;20033;-47
2024/01/31 00:49:31;;;;;;;99.78;36.38;;;;;;;;;;5053156;28;20022;-46
2024/01/31 00:51:58;;;;;;;84.23;35.83;;;;;;;;;;5036975;28;20430;-49
2024/01/31 00:54:24;;;;;;;76.05;33.90;;;;;;;;;;5032290;28;20403;-47
2024/01/31 00:56:50;;;;;;;95.13;34.93;;;;;;;;;;5040348;28;20029;-48
2024/01/31 00:59:16;;;;;;;163.40;39.25;;;;;;;;;;5044609;28;20267;-51
2024/01/31 01:01:42;;;;;;;89.10;35.77;;;;;;;;;;5041486;28;20045;-47
2024/01/31 01:04:09;;;;;;;130.48;42.35;;;;;;;;;;5034867;28;20037;-47
2024/01/31 01:06:35;;;;;;;87.13;37.77;;;;;;;;;;5047118;28;20037;-47
2024/01/31 01:09:01;;;;;;;97.90;41.30;;;;;;;;;;5053071;28;20283;-47
2024/01/31 01:11:29;;;;;;;150.97;40.17;;;;;;;;;;5023416;28;20029;-46
2024/01/31 01:13:56;;;;;;;134.23;39.90;;;;;;;;;;5050878;28;20028;-47
2024/01/31 01:16:22;;;;;;;141.13;40.57;;;;;;;;;;5019604;28;20025;-46
2024/01/31 01:18:48;;;;;;;141.18;41.83;;;;;;;;;;5050056;28;20036;-47
2024/01/31 01:21:14;;;;;;;145.20;42.73;;;;;;;;;;5054395;28;20025;-47
2024/01/31 01:23:40;;;;;;;143.85;41.42;;;;;;;;;;5042637;28;20024;-47
2024/01/31 01:26:07;;;;;;;97.47;37.80;;;;;;;;;;5048264;28;20031;-47
2024/01/31 01:28:33;;;;;;;103.55;39.92;;;;;;;;;;5052207;28;20545;-49
2024/01/31 01:30:59;;;;;;;121.10;42.13;;;;;;;;;;5052492;28;20414;-47
2024/01/31 01:33:25;;;;;;;111.78;39.42;;;;;;;;;;5041183;28;20471;-47
2024/01/31 01:35:52;;;;;;;102.93;39.97;;;;;;;;;;5039692;28;20115;-47
2024/01/31 01:38:18;;;;;;;102.93;43.95;;;;;;;;;;5053678;28;20021;-46
2024/01/31 01:40:45;;;;;;;82.82;40.80;;;;;;;;;;5037012;28;20021;-50
2024/01/31 01:43:18;;;;;;;87.38;40.72;;;;;;;;;;5052652;28;20522;-49
2024/01/31 01:45:45;;;;;;;88.72;40.17;;;;;;;;;;5040313;28;20060;-49
2024/01/31 01:48:12;;;;;;;109.38;41.28;;;;;;;;;;5019294;28;20033;-47
2024/01/31 01:50:39;;;;;;;78.35;40.85;;;;;;;;;;5053307;28;20036;-47
2024/01/31 01:53:05;;;;;;;123.65;41.15;;;;;;;;;;5020897;28;20014;-47
2024/01/31 01:55:31;;;;;;;89.60;41.83;;;;;;;;;;5038184;28;20043;-47
2024/01/31 01:57:58;;;;;;;98.88;42.05;;;;;;;;;;5019263;28;20021;-49
2024/01/31 02:00:25;;;;;;;128.70;44.70;;;;;;;;;;5040233;28;20373;-46
2024/01/31 02:02:52;;;;;;;93.88;43.85;;;;;;;;;;5015936;28;20067;-47
2024/01/31 02:05:18;;;;;;;182.68;48.92;;;;;;;;;;5033844;28;20025;-49
2024/01/31 02:07:44;;;;;;;186.68;54.75;;;;;;;;;;5018700;28;20025;-47
2024/01/31 02:10:10;;;;;;;255.07;58.97;;;;;;;;;;5035820;28;20065;-47
2024/01/31 02:12:36;;;;;;;142.13;50.17;;;;;;;;;;5053674;28;20380;-48
2024/01/31 02:15:03;;;;;;;175.33;48.03;;;;;;;;;;5053617;28;20382;-47
2024/01/31 02:17:30;;;;;;;196.48;50.65;;;;;;;;;;5053467;28;20127;-47
2024/01/31 02:19:56;;;;;;;261.98;57.15;;;;;;;;;;5039907;28;20395;-47
2024/01/31 02:22:22;;;;;;;246.30;57.22;;;;;;;;;;5033625;28;20032;-48
2024/01/31 02:24:49;;;;;;;180.30;51.43;;;;;;;;;;5033529;28;20035;-47
2024/01/31 02:27:15;;;;;;;194.70;55.10;;;;;;;;;;5033271;28;20030;-49
2024/01/31 02:29:42;;;;;;;160.63;52.72;;;;;;;;;;5033460;28;20158;-48
2024/01/31 02:32:08;;;;;;;214.07;53.65;;;;;;;;;;5033417;28;20024;-46
2024/01/31 02:34:34;;;;;;;215.20;56.38;;;;;;;;;;5033495;28;20278;-51
2024/01/31 02:37:00;;;;;;;158.10;53.50;;;;;;;;;;5033192;28;20029;-48
2024/01/31 02:39:27;;;;;;;168.07;53.43;;;;;;;;;;5033349;28;20088;-49
2024/01/31 02:41:53;;;;;;;169.18;50.72;;;;;;;;;;5033321;28;20155;-47
2024/01/31 02:44:21;;;;;;;149.60;51.13;;;;;;;;;;5015592;28;20543;-46
2024/01/31 02:46:47;;;;;;;205.15;50.35;;;;;;;;;;5032869;28;20073;-47
2024/01/31 02:49:13;;;;;;;120.57;38.80;;;;;;;;;;5033148;28;20029;-48
2024/01/31 02:51:39;;;;;;;247.15;58.75;;;;;;;;;;5032951;28;20029;-47
2024/01/31 02:54:06;;;;;;;214.93;56.57;;;;;;;;;;5015361;28;20476;-46
2024/01/31 02:56:32;;;;;;;268.38;56.97;;;;;;;;;;5046806;28;20299;-46
2024/01/31 02:58:58;;;;;;;231.60;52.47;;;;;;;;;;5034862;28;20487;-47
2024/01/31 03:01:24;;;;;;;207.07;54.55;;;;;;;;;;5052908;28;20491;-46
2024/01/31 03:03:50;;;;;;;154.83;50.80;;;;;;;;;;5017392;28;20029;-47
2024/01/31 03:06:16;;;;;;;195.05;54.03;;;;;;;;;;5040691;28;20036;-47
2024/01/31 03:08:43;;;;;;;240.70;58.75;;;;;;;;;;5050792;28;20506;-47
2024/01/31 03:11:09;;;;;;;239.70;58.00;;;;;;;;;;5049087;28;20380;-47
2024/01/31 03:13:35;;;;;;;213.07;55.63;;;;;;;;;;5041515;28;20040;-47
2024/01/31 03:16:02;;;;;;;200.25;59.40;;;;;;;;;;5050179;28;20484;-47
2024/01/31 03:18:28;;;;;;;303.05;68.57;;;;;;;;;;5030248;28;20029;-47
2024/01/31 03:20:55;;;;;;;367.25;77.32;;;;;;;;;;5032426;28;20083;-47
2024/01/31 03:23:22;;;;;;;237.95;65.03;;;;;;;;;;5032415;28;20036;-47
2024/01/31 03:25:48;;;;;;;225.02;58.22;;;;;;;;;;5032338;28;20029;-46
2024/01/31 03:28:15;;;;;;;238.70;61.70;;;;;;;;;;5032627;28;20472;-47
2024/01/31 03:30:41;;;;;;;201.48;51.45;;;;;;;;;;5018076;28;20017;-48
2024/01/31 03:33:08;;;;;;;201.67;54.27;;;;;;;;;;5034254;28;20028;-47
2024/01/31 03:35:34;;;;;;;193.07;56.10;;;;;;;;;;5034163;28;20021;-48
2024/01/31 03:38:00;;;;;;;227.03;61.50;;;;;;;;;;5052000;28;20028;-47
2024/01/31 03:40:26;;;;;;;325.25;65.03;;;;;;;;;;5052088;28;20370;-47
2024/01/31 03:42:52;;;;;;;334.30;70.97;;;;;;;;;;5052071;28;20392;-46
2024/01/31 03:45:18;;;;;;;319.93;66.17;;;;;;;;;;5051905;28;20036;-47
2024/01/31 03:47:45;;;;;;;195.88;58.45;;;;;;;;;;5051817;28;20021;-49
2024/01/31 03:50:11;;;;;;;287.77;58.83;;;;;;;;;;5033976;28;20395;-47
2024/01/31 03:52:37;;;;;;;332.13;71.97;;;;;;;;;;5050240;28;20032;-47
2024/01/31 03:55:04;;;;;;;213.00;56.70;;;;;;;;;;5038658;28;20260;-47
2024/01/31 03:57:30;;;;;;;204.80;51.45;;;;;;;;;;5051646;28;20036;-47
2024/01/31 04:00:04;;;;;;;220.30;56.47;;;;;;;;;;5032888;28;20025;-47
2024/01/31 04:02:31;;;;;;;248.32;59.72;;;;;;;;;;5026411;28;20048;-47
2024/01/31 04:04:58;;;;;;;231.13;56.22;;;;;;;;;;5020293;28;20029;-50
2024/01/31 04:07:25;;;;;;;178.27;52.85;;;;;;;;;;5051083;28;20434;-47
2024/01/31 04:09:51;;;;;;;255.77;55.85;;;;;;;;;;5040423;28;20101;-47
2024/01/31 04:12:17;;;;;;;416.13;91.03;;;;;;;;;;5049155;28;20419;-47
2024/01/31 04:14:43;;;;;;;258.38;62.25;;;;;;;;;;5048581;28;20406;-47
2024/01/31 04:17:09;;;;;;;308.30;63.53;;;;;;;;;;5022324;28;20116;-50
2024/01/31 04:19:35;;;;;;;379.08;79.20;;;;;;;;;;5031669;28;20052;-47
2024/01/31 04:22:02;;;;;;;241.20;59.73;;;;;;;;;;5014091;28;20104;-47
2024/01/31 04:24:28;;;;;;;197.40;48.90;;;;;;;;;;5034625;28;20018;-46
2024/01/31 04:26:54;;;;;;;287.77;64.47;;;;;;;;;;5030670;28;20049;-47
2024/01/31 04:29:21;;;;;;;288.63;64.07;;;;;;;;;;5047094;28;20040;-47
2024/01/31 04:31:53;;;;;;;142.68;45.25;;;;;;;;;;5045210;28;20062;-47
2024/01/31 04:34:20;;;;;;;194.20;59.10;;;;;;;;;;5037079;28;20549;-47
2024/01/31 04:36:46;;;;;;;160.40;52.25;;;;;;;;;;5030568;28;20057;-48
2024/01/31 04:39:12;;;;;;;225.60;57.50;;;;;;;;;;5035008;28;20124;-47
2024/01/31 04:41:39;;;;;;;194.48;56.47;;;;;;;;;;5031882;28;20029;-49
2024/01/31 04:44:05;;;;;;;188.82;55.00;;;;;;;;;;5016572;28;20486;-46
2024/01/31 04:46:31;;;;;;;199.97;54.07;;;;;;;;;;5044107;28;20037;-47
2024/01/31 04:48:57;;;;;;;157.13;55.07;;;;;;;;;;5031853;28;20025;-47
2024/01/31 04:51:25;;;;;;;212.63;52.33;;;;;;;;;;5030932;28;20036;-45
2024/01/31 04:53:52;;;;;;;217.80;54.47;;;;;;;;;;5031002;28;20281;-45
2024/01/31 04:56:18;;;;;;;154.70;53.95;;;;;;;;;;5031734;28;20068;-49
2024/01/31 04:58:44;;;;;;;160.93;52.75;;;;;;;;;;5048943;28;20111;-50
2024/01/31 05:01:10;;;;;;;165.60;54.95;;;;;;;;;;5015735;28;20021;-50
2024/01/31 05:03:36;;;;;;;147.77;49.88;;;;;;;;;;5050984;28;20102;-46
2024/01/31 05:06:03;;;;;;;132.20;47.53;;;;;;;;;;5051095;28;20376;-48
2024/01/31 05:08:29;;;;;;;170.00;45.10;;;;;;;;;;5039537;28;20041;-47
2024/01/31 05:10:55;;;;;;;162.93;53.93;;;;;;;;;;5031181;28;20026;-48
2024/01/31 05:13:22;;;;;;;203.13;57.90;;;;;;;;;;5013893;28;20101;-46
2024/01/31 05:15:48;;;;;;;168.43;52.93;;;;;;;;;;5031485;28;20026;-47
2024/01/31 05:18:14;;;;;;;152.18;50.72;;;;;;;;;;5031455;28;20026;-46
2024/01/31 05:20:41;;;;;;;160.93;53.60;;;;;;;;;;5031255;28;20468;-46
2024/01/31 05:23:07;;;;;;;138.52;50.03;;;;;;;;;;5030921;28;20056;-46
2024/01/31 05:25:33;;;;;;;119.45;49.38;;;;;;;;;;5014188;28;20029;-47
2024/01/31 05:27:59;;;;;;;157.63;57.47;;;;;;;;;;5034578;28;20033;-48
2024/01/31 05:30:26;;;;;;;178.77;56.43;;;;;;;;;;5000532;28;20484;-48
2024/01/31 05:32:52;;;;;;;124.10;51.03;;;;;;;;;;5034702;28;20030;-47
2024/01/31 05:35:19;;;;;;;202.73;59.25;;;;;;;;;;5034015;28;20100;-46
2024/01/31 05:37:45;;;;;;;240.98;71.07;;;;;;;;;;5034328;28;20485;-46
2024/01/31 05:40:16;;;;;;;200.27;65.47;;;;;;;;;;5034459;28;20027;-47
2024/01/31 05:42:43;;;;;;;201.02;61.25;;;;;;;;;;5034428;28;20040;-47
2024/01/31 05:45:09;;;;;;;135.85;51.75;;;;;;;;;;5034266;28;20026;-47
2024/01/31 05:47:35;;;;;;;159.73;53.33;;;;;;;;;;5016589;28;20483;-46
2024/01/31 05:50:02;;;;;;;159.82;53.13;;;;;;;;;;5034381;28;20469;-47
2024/01/31 05:52:29;;;;;;;134.07;54.15;;;;;;;;;;5034070;28;20025;-49
2024/01/31 05:54:55;;;;;;;190.15;53.80;;;;;;;;;;5034209;28;20018;-46
2024/01/31 05:57:21;;;;;;;190.70;53.67;;;;;;;;;;5016157;28;20045;-46
2024/01/31 05:59:47;;;;;;;160.47;53.93;;;;;;;;;;5034208;28;20037;-46
2024/01/31 06:02:13;;;;;;;217.00;64.70;;;;;;;;;;5016486;28;20030;-49
2024/01/31 06:04:40;;;;;;;189.00;63.28;;;;;;;;;;5033924;28;20021;-46
2024/01/31 06:07:07;;;;;;;223.55;65.65;;;;;;;;;;5033765;28;20025;-48
2024/01/31 06:09:33;;;;;;;293.48;81.97;;;;;;;;;;5016161;28;20104;-49
2024/01/31 06:11:59;;;;;;;174.40;57.40;;;;;;;;;;5034012;28;20030;-47
2024/01/31 06:14:25;;;;;;;402.88;81.88;;;;;;;;;;5034094;28;20022;-48
2024/01/31 06:16:51;;;;;;;180.95;59.92;;;;;;;;;;5015870;28;20116;-47
2024/01/31 06:19:18;;;;;;;242.43;65.23;;;;;;;;;;5033761;28;20041;-47
2024/01/31 06:21:44;;;;;;;153.30;58.72;;;;;;;;;;5015789;28;20029;-47
2024/01/31 06:24:10;;;;;;;263.40;66.00;;;;;;;;;;5015966;28;20396;-48
2024/01/31 06:26:42;;;;;;;235.40;57.27;;;;;;;;;;5015585;28;20041;-46
2024/01/31 06:29:10;;;;;;;237.52;63.00;;;;;;;;;;5033565;28;20116;-46
2024/01/31 06:31:45;;;;;;;142.75;56.42;;;;;;;;;;5033551;28;20029;-48
2024/01/31 06:34:12;;;;;;;181.35;59.17;;;;;;;;;;5033373;28;20037;-47
2024/01/31 06:36:38;;;;;;;202.82;60.38;;;;;;;;;;4999043;28;20109;-46
2024/01/31 06:39:04;;;;;;;205.70;66.40;;;;;;;;;;5032783;28;20032;-48
2024/01/31 06:41:32;;;;;;;225.43;73.18;;;;;;;;;;5033327;28;20116;-49
2024/01/31 06:43:58;;;;;;;166.07;56.08;;;;;;;;;;5033081;28;20029;-47
2024/01/31 06:46:24;;;;;;;170.10;58.83;;;;;;;;;;5033109;28;20021;-45
2024/01/31 06:48:50;;;;;;;165.27;57.20;;;;;;;;;;5033232;28;20264;-45
2024/01/31 06:51:16;;;;;;;168.37;55.70;;;;;;;;;;5033226;28;20025;-46
2024/01/31 06:53:44;;;;;;;142.80;55.03;;;;;;;;;;5015242;28;20033;-45
2024/01/31 06:56:16;;;;;;;111.38;46.10;;;;;;;;;;5032839;28;20483;-44
2024/01/31 06:58:46;;;;;;;107.32;48.25;;;;;;;;;;5032703;28;20060;-45
2024/01/31 07:01:16;;;;;;;97.78;47.65;;;;;;;;;;5015515;28;20034;-44
2024/01/31 07:03:42;;;;;;;77.57;42.97;;;;;;;;;;5048198;28;20025;-45
2024/01/31 07:06:10;;;;;;;82.70;43.47;;;;;;;;;;5032773;28;20036;-45
2024/01/31 07:08:36;;;;;;;94.68;44.70;;;;;;;;;;5032335;28;20112;-44
2024/01/31 07:11:05;;;;;;;73.63;44.27;;;;;;;;;;4998631;28;20033;-46
2024/01/31 07:13:31;;;;;;;79.78;43.33;;;;;;;;;;5032645;28;20056;-47
2024/01/31 07:15:57;;;;;;;73.37;44.00;;;;;;;;;;5032399;28;20026;-47
2024/01/31 07:18:24;;;;;;;77.87;44.47;;;;;;;;;;5032554;28;20036;-47
2024/01/31 07:20:50;;;;;;;82.32;43.88;;;;;;;;;;5032791;28;20087;-47
2024/01/31 07:23:16;;;;;;;78.50;44.95;;;;;;;;;;5032483;28;20044;-45
2024/01/31 07:25:42;;;;;;;82.17;44.77;;;;;;;;;;5032410;28;20124;-50
2024/01/31 07:28:09;;;;;;;78.40;45.07;;;;;;;;;;4998497;28;20037;-49
2024/01/31 07:30:35;;;;;;;77.93;43.45;;;;;;;;;;5014983;28;20029;-50
2024/01/31 07:33:02;;;;;;;77.97;46.75;;;;;;;;;;5032408;28;20124;-50
2024/01/31 07:35:28;;;;;;;81.15;47.35;;;;;;;;;;5032190;28;20474;-50
2024/01/31 07:37:54;;;;;;;79.63;46.92;;;;;;;;;;5031977;28;20038;-48
2024/01/31 07:40:20;;;;;;;79.63;43.57;;;;;;;;;;5014560;28;20025;-48
2024/01/31 07:42:46;;;;;;;74.47;44.90;;;;;;;;;;5032230;28;20520;-46
2024/01/31 07:45:12;;;;;;;73.50;44.70;;;;;;;;;;5031940;28;20029;-46
2024/01/31 07:47:39;;;;;;;79.15;44.92;;;;;;;;;;5031947;28;20047;-46
2024/01/31 07:50:06;;;;;;;76.60;46.47;;;;;;;;;;5031169;28;20108;-46
2024/01/31 07:52:32;;;;;;;79.20;46.78;;;;;;;;;;5032211;28;20393;-46
2024/01/31 07:54:58;;;;;;;84.15;48.17;;;;;;;;;;5032163;28;20124;-49
2024/01/31 07:57:25;;;;;;;76.68;46.20;;;;;;;;;;5031676;28;20048;-46
2024/01/31 07:59:51;;;;;;;79.78;46.90;;;;;;;;;;5031935;28;20040;-45
2024/01/31 08:02:17;;;;;;;79.93;44.57;;;;;;;;;;5014247;28;20049;-48
2024/01/31 08:04:43;;;;;;;62.83;36.05;;;;;;;;;;5031984;28;20152;-46
2024/01/31 08:07:12;;;;;;;85.30;47.33;;;;;;;;;;5031210;28;20522;-46
2024/01/31 08:09:39;;;;;;;79.03;47.03;;;;;;;;;;5031928;28;20025;-47
2024/01/31 08:12:05;;;;;;;;;;;;;;;;;;5032143;28;20419;-46
2024/01/31 08:14:31;;;;;;;79.72;44.47;;;;;;;;;;5032021;28;20347;-47
2024/01/31 08:16:58;;;;;;;80.43;47.97;;;;;;;;;;5031533;28;20030;-47
2024/01/31 08:19:24;;;;;;;75.85;46.30;;;;;;;;;;5031695;28;20076;-46
2024/01/31 08:21:50;;;;;;;79.68;45.10;;;;;;;;;;5031594;28;20033;-46
2024/01/31 08:24:18;;;;;;;77.80;45.75;;;;;;;;;;5031662;28;20419;-48
2024/01/31 08:26:45;;;;;;;91.35;48.10;;;;;;;;;;5031274;28;20504;-45
2024/01/31 08:29:11;;;;;;;86.30;49.13;;;;;;;;;;5031490;28;20032;-46
2024/01/31 08:31:37;;;;;;;83.40;46.45;;;;;;;;;;5031552;28;20159;-47
2024/01/31 08:34:03;;;;;;;82.28;47.60;;;;;;;;;;5046838;28;20022;-47
2024/01/31 08:36:29;;;;;;;81.13;48.88;;;;;;;;;;5031474;28;20484;-46
2024/01/31 08:38:55;;;;;;;84.70;51.72;;;;;;;;;;5031201;28;20052;-49
2024/01/31 08:41:21;;;;;;;87.00;51.90;;;;;;;;;;5031517;28;20026;-45
2024/01/31 08:43:48;;;;;;;83.13;49.40;;;;;;;;;;5031316;28;20496;-46
2024/01/31 08:46:14;;;;;;;80.90;49.17;;;;;;;;;;5031258;28;20026;-46
2024/01/31 08:48:40;;;;;;;86.57;47.45;;;;;;;;;;5031329;28;20400;-47
2024/01/31 08:51:07;;;;;;;84.72;49.60;;;;;;;;;;5031445;28;20018;-46
2024/01/31 08:53:33;;;;;;;87.78;51.45;;;;;;;;;;5030978;28;20036;-47
2024/01/31 08:56:00;;;;;;;93.43;55.30;;;;;;;;;;5031155;28;20072;-47
2024/01/31 08:58:27;;;;;;;96.63;55.95;;;;;;;;;;5031156;28;20072;-46
2024/01/31 09:00:53;;;;;;;100.13;54.53;;;;;;;;;;5032869;28;20061;-47
2024/01/31 09:03:19;;;;;;;102.67;56.07;;;;;;;;;;5034707;28;20551;-46
2024/01/31 09:05:45;;;;;;;95.85;56.20;;;;;;;;;;5034956;28;20403;-46
2024/01/31 09:08:11;;;;;;;89.05;54.80;;;;;;;;;;5034628;28;20101;-47
2024/01/31 09:10:37;;;;;;;99.07;57.83;;;;;;;;;;5034858;28;20484;-48
2024/01/31 09:13:04;;;;;;;84.63;52.45;;;;;;;;;;5034923;28;20033;-48
2024/01/31 09:15:30;;;;;;;89.53;54.25;;;;;;;;;;5017181;28;20034;-46
2024/01/31 09:17:56;;;;;;;84.70;53.47;;;;;;;;;;5034990;28;20046;-47
2024/01/31 09:20:22;;;;;;;95.13;57.00;;;;;;;;;;5034964;28;20044;-47
2024/01/31 09:22:49;;;;;;;88.88;55.17;;;;;;;;;;5017135;28;20033;-47
2024/01/31 09:25:15;;;;;;;83.07;51.50;;;;;;;;;;5016830;28;20083;-47
2024/01/31 09:27:41;;;;;;;91.15;54.90;;;;;;;;;;5016627;28;20043;-47
2024/01/31 09:30:08;;;;;;;92.15;55.85;;;;;;;;;;5017319;28;20685;-46
2024/01/31 09:32:34;;;;;;;90.82;53.47;;;;;;;;;;5033594;28;20124;-47
2024/01/31 09:35:01;;;;;;;87.05;51.83;;;;;;;;;;5017029;28;20036;-46
2024/01/31 09:37:27;;;;;;;96.82;53.80;;;;;;;;;;5034435;28;20381;-47
2024/01/31 09:39:56;;;;;;;85.93;54.53;;;;;;;;;;5033821;28;20506;-47
2024/01/31 09:42:22;;;;;;;88.40;56.45;;;;;;;;;;5034488;28;20045;-47
2024/01/31 09:44:50;;;;;;;84.93;52.63;;;;;;;;;;5034500;28;20682;-47
2024/01/31 09:47:16;;;;;;;93.10;53.25;;;;;;;;;;5034082;28;20570;-49
2024/01/31 09:49:42;;;;;;;81.50;49.33;;;;;;;;;;5034368;28;20030;-48
2024/01/31 09:52:10;;;;;;;79.93;49.53;;;;;;;;;;5034357;28;20030;-47
2024/01/31 09:54:36;;;;;;;83.03;52.55;;;;;;;;;;5033929;28;20026;-49
2024/01/31 09:57:03;;;;;;;90.05;52.58;;;;;;;;;;4998760;28;20041;-47
2024/01/31 09:59:30;;;;;;;93.15;54.53;;;;;;;;;;5033956;28;20495;-49
2024/01/31 10:01:56;;;;;;;90.25;54.03;;;;;;;;;;5034186;28;20104;-47
2024/01/31 10:04:22;;;;;;;91.53;53.47;;;;;;;;;;5034058;28;20033;-47
2024/01/31 10:06:50;;;;;;;92.50;57.80;;;;;;;;;;5033458;28;20069;-47
2024/01/31 10:09:17;;;;;;;90.47;52.95;;;;;;;;;;5033793;28;20029;-48
2024/01/31 10:11:47;;;;;;;84.93;51.70;;;;;;;;;;5033133;28;20043;-48
2024/01/31 10:14:13;;;;;;;93.70;55.55;;;;;;;;;;5033707;28;20116;-47
2024/01/31 10:16:41;;;;;;;83.53;51.03;;;;;;;;;;5049005;28;20399;-47
2024/01/31 10:19:08;;;;;;;89.93;54.03;;;;;;;;;;5033687;28;20022;-47
2024/01/31 10:21:34;;;;;;;81.63;50.53;;;;;;;;;;5033850;28;20456;-46
2024/01/31 10:24:02;;;;;;;90.60;54.65;;;;;;;;;;5033296;28;20116;-48
2024/01/31 10:26:29;;;;;;;82.05;53.20;;;;;;;;;;5021892;28;20029;-47
2024/01/31 10:29:01;;;;;;;83.97;54.43;;;;;;;;;;5018766;28;20491;-47
2024/01/31 10:31:30;;;;;;;80.53;55.50;;;;;;;;;;5037067;28;20285;-50
2024/01/31 10:33:58;;;;;;;77.63;49.15;;;;;;;;;;5032678;28;20385;-48
2024/01/31 10:36:24;;;;;;;77.90;50.55;;;;;;;;;;5014559;28;20030;-48
2024/01/31 10:38:51;;;;;;;80.80;54.17;;;;;;;;;;5014632;28;20037;-44
2024/01/31 10:41:19;;;;;;;72.00;47.22;;;;;;;;;;5031649;28;20021;-44
2024/01/31 10:43:48;;;;;;;70.18;50.13;;;;;;;;;;5014108;28;20048;-47
2024/01/31 10:46:14;;;;;;;77.85;51.35;;;;;;;;;;5031356;28;20108;-47
2024/01/31 10:48:41;;;;;;;79.00;48.92;;;;;;;;;;5031242;28;20025;-47
2024/01/31 10:51:09;;;;;;;71.53;49.00;;;;;;;;;;4997512;28;20053;-48
2024/01/31 10:53:35;;;;;;;64.72;45.97;;;;;;;;;;5031695;28;20029;-50
2024/01/31 10:56:03;;;;;;;72.35;48.45;;;;;;;;;;5031928;28;20017;-49
2024/01/31 10:58:30;;;;;;;68.47;44.67;;;;;;;;;;5013987;28;20033;-48
2024/01/31 11:00:56;;;;;;;58.50;35.37;;;;;;;;;;5031279;28;20038;-46
2024/01/31 11:03:22;;;;;;;60.65;38.63;;;;;;;;;;5031275;28;20635;-45
2024/01/31 11:05:53;;;;;;;56.70;35.78;;;;;;;;;;5013457;28;20499;-47
2024/01/31 11:08:20;;;;;;;55.55;36.97;;;;;;;;;;5025028;23;20128;-48
2024/01/31 11:10:47;;;;;;;55.40;36.80;;;;;;;;;;5051597;28;20021;-49
2024/01/31 11:13:13;;;;;;;56.28;36.63;;;;;;;;;;5051853;28;20025;-47
2024/01/31 11:15:40;;;;;;;56.38;35.95;;;;;;;;;;5052073;28;20029;-47
2024/01/31 11:18:08;;;;;;;51.10;36.03;;;;;;;;;;5053302;28;20029;-48
2024/01/31 11:20:36;;;;;;;55.35;35.85;;;;;;;;;;5054378;28;20127;-49
2024/01/31 11:23:06;;;;;;;57.00;35.70;;;;;;;;;;5071093;28;20052;-48
2024/01/31 11:25:37;;;;;;;56.13;39.33;;;;;;;;;;5071875;28;20036;-47
2024/01/31 11:28:04;;;;;;;58.28;37.83;;;;;;;;;;5054335;28;20040;-48
2024/01/31 11:30:33;;;;;;;62.42;39.55;;;;;;;;;;5072333;28;20028;-48
2024/01/31 11:33:02;;;;;;;61.38;35.28;;;;;;;;;;5072278;28;20020;-47
2024/01/31 11:35:28;;;;;;;61.05;40.33;;;;;;;;;;5071958;28;20025;-49
2024/01/31 11:37:57;;;;;;;59.35;37.58;;;;;;;;;;5072194;28;20021;-48
2024/01/31 11:40:24;;;;;;;59.22;37.60;;;;;;;;;;5054321;28;20024;-49
2024/01/31 11:42:52;;;;;;;58.38;38.25;;;;;;;;;;5055124;28;20074;-49
2024/01/31 11:45:18;;;;;;;60.97;39.30;;;;;;;;;;5071879;28;20037;-49
2024/01/31 11:47:44;;;;;;;62.20;38.17;;;;;;;;;;5070946;28;20028;-48
2024/01/31 11:50:11;;;;;;;53.03;36.23;;;;;;;;;;5072040;28;20029;-51
2024/01/31 11:52:38;;;;;;;50.57;32.90;;;;;;;;;;5072067;28;20028;-50
2024/01/31 11:55:06;;;;;;;52.75;31.83;;;;;;;;;;5052254;28;20032;-50
2024/01/31 11:57:33;;;;;;;48.25;32.15;;;;;;;;;;5031774;28;20025;-49
2024/01/31 12:00:04;;;;;;;53.22;35.40;;;;;;;;;;5044088;28;20487;-48
2024/01/31 12:02:38;;;;;;;44.65;31.42;;;;;;;;;;5050902;28;20045;-49
2024/01/31 12:05:05;;;;;;;44.88;28.58;;;;;;;;;;5051588;28;20029;-49
2024/01/31 12:07:31;;;;;;;48.47;32.60;;;;;;;;;;5051249;28;20017;-49
2024/01/31 12:09:58;;;;;;;48.15;29.90;;;;;;;;;;5068575;28;20443;-49
2024/01/31 12:12:26;;;;;;;59.13;31.35;;;;;;;;;;5071673;28;20380;-48
2024/01/31 12:14:53;;;;;;;47.72;31.60;;;;;;;;;;5071392;28;20090;-49
2024/01/31 12:17:23;;;;;;;48.13;31.92;;;;;;;;;;5071300;28;20035;-48
2024/01/31 12:19:50;;;;;;;54.00;32.88;;;;;;;;;;5071400;28;20107;-51
2024/01/31 12:22:17;;;;;;;46.75;31.83;;;;;;;;;;5071547;28;20498;-48
2024/01/31 12:24:44;;;;;;;47.17;31.30;;;;;;;;;;5072040;28;20041;-48
2024/01/31 12:27:11;;;;;;;45.03;30.38;;;;;;;;;;5057290;28;20029;-49
2024/01/31 12:29:38;;;;;;;46.47;32.85;;;;;;;;;;5082410;28;20058;-49
2024/01/31 12:32:04;;;;;;;48.40;32.00;;;;;;;;;;5074445;28;20032;-48
2024/01/31 12:34:30;;;;;;;53.72;34.10;;;;;;;;;;5082468;28;20032;-48
2024/01/31 12:36:56;;;;;;;56.05;37.20;;;;;;;;;;5058046;28;20036;-48
2024/01/31 12:39:23;;;;;;;54.33;35.97;;;;;;;;;;5076504;28;20029;-49
2024/01/31 12:41:50;;;;;;;59.67;41.83;;;;;;;;;;5078798;28;20032;-50
2024/01/31 12:44:17;;;;;;;59.72;39.30;;;;;;;;;;5094087;28;20086;-50
2024/01/31 12:46:43;;;;;;;;;;;;;;;;;;5059919;28;20494;-50
2024/01/31 12:49:10;;;;;;;59.17;38.65;;;;;;;;;;5076138;28;20003;-50
2024/01/31 12:51:36;;;;;;;63.05;41.58;;;;;;;;;;5088777;28;20046;-49
2024/01/31 12:54:02;;;;;;;63.95;43.10;;;;;;;;;;5077545;28;20028;-48
2024/01/31 12:56:28;;;;;;;64.88;39.15;;;;;;;;;;5077115;28;20059;-49
2024/01/31 12:58:57;;;;;;;57.00;37.25;;;;;;;;;;5087595;28;20474;-48
2024/01/31 13:01:24;;;;;;;57.55;37.20;;;;;;;;;;5077520;28;20466;-48
2024/01/31 13:03:50;;;;;;;61.88;38.65;;;;;;;;;;5086022;28;20025;-53
2024/01/31 13:06:16;;;;;;;62.50;38.40;;;;;;;;;;5057744;28;20036;-50
2024/01/31 13:08:42;;;;;;;62.45;40.35;;;;;;;;;;5087062;28;20409;-51
2024/01/31 13:11:09;;;;;;;68.78;42.67;;;;;;;;;;5096491;28;20024;-49
2024/01/31 13:13:40;;;;;;;63.00;42.45;;;;;;;;;;5092144;28;20031;-50
2024/01/31 13:16:07;;;;;;;65.90;40.47;;;;;;;;;;5078700;28;20498;-51
2024/01/31 13:18:33;;;;;;;63.80;40.97;;;;;;;;;;5077202;28;20029;-46
2024/01/31 13:20:59;;;;;;;63.63;41.70;;;;;;;;;;5064882;28;20166;-49
2024/01/31 13:23:26;;;;;;;64.70;43.03;;;;;;;;;;5096157;28;20043;-47
2024/01/31 13:25:52;;;;;;;61.47;42.55;;;;;;;;;;5086115;28;20039;-46
2024/01/31 13:28:18;;;;;;;64.10;41.58;;;;;;;;;;5058322;28;20029;-45
2024/01/31 13:30:45;;;;;;;64.72;40.72;;;;;;;;;;5082881;28;20737;-46
2024/01/31 13:33:11;;;;;;;61.70;41.92;;;;;;;;;;5096513;28;20448;-47
2024/01/31 13:35:38;;;;;;;65.80;43.00;;;;;;;;;;5096160;28;20114;-48
2024/01/31 13:38:04;;;;;;;68.53;40.77;;;;;;;;;;5072082;28;20020;-47
2024/01/31 13:40:30;;;;;;;66.10;42.77;;;;;;;;;;5060470;28;20028;-46
2024/01/31 13:42:56;;;;;;;65.53;43.08;;;;;;;;;;5083042;28;20083;-50
2024/01/31 13:45:23;;;;;;;65.07;43.08;;;;;;;;;;5060167;28;20036;-51
2024/01/31 13:47:49;;;;;;;60.83;41.60;;;;;;;;;;5093479;28;20504;-47
2024/01/31 13:50:15;;;;;;;62.83;41.20;;;;;;;;;;5092652;28;20585;-49
2024/01/31 13:52:41;;;;;;;64.38;42.35;;;;;;;;;;5072774;28;20028;-47
2024/01/31 13:55:08;;;;;;;64.90;41.70;;;;;;;;;;5072537;28;20091;-46
2024/01/31 13:57:34;;;;;;;60.95;40.72;;;;;;;;;;5054606;28;20032;-47
2024/01/31 14:00:04;;;;;;;63.00;41.10;;;;;;;;;;5079418;28;20028;-47
2024/01/31 14:02:31;;;;;;;61.05;43.05;;;;;;;;;;5062077;28;20040;-50
2024/01/31 14:04:57;;;;;;;67.53;44.53;;;;;;;;;;5070466;28;20490;-46
2024/01/31 14:07:24;;;;;;;59.40;40.97;;;;;;;;;;5054430;28;20108;-46